Time;durP1;ratioP1;P1;durP2;ratioP2;P2;SDS_P1;SDS_P2;PMS_P1;PMS_P2;Temp;Humidity;BMP_temperature;BMP_pressure;BME280_temperature;BME280_humidity;BME280_pressure;Samples;Min_cycle;Max_cycle;Signal;HPM_P1;HPM_P2
2022/03/31 00:00:10;;;;;;;;;;;;;;;;;;4222165;28;1160;-60
2022/03/31 00:02:38;;;;;;;;;;;;;;;;;;4222368;28;960;-60
2022/03/31 00:04:59;;;;;;;;;;;;;;;;;;4220948;28;867;-61
2022/03/31 00:07:20;;;;;;;;;;;;;;;;;;4222411;28;1914;-60
2022/03/31 00:09:41;;;;;;;;;;;;;;;;;;4222346;28;943;-60
2022/03/31 00:12:01;;;;;;;;;;;;;;;;;;4221867;28;1302;-60
2022/03/31 00:14:22;;;;;;;;;;;;;;;;;;4221854;28;1008;-60
2022/03/31 00:16:43;;;;;;;;;;;;;;;;;;4221182;28;984;-60
2022/03/31 00:19:04;;;;;;;;;;;;;;;;;;4221186;28;1179;-60
2022/03/31 00:24:22;;;;;;;;;;;;;;;;;;4221228;28;1151;-60
2022/03/31 00:26:43;;;;;;;;;;;;;;;;;;4221075;28;1913;-60
2022/03/31 00:29:04;;;;;;;;;;;;;;;;;;4221211;28;894;-60
2022/03/31 00:31:24;;;;;;;;;;;;;;;;;;4219121;28;939;-60
2022/03/31 00:33:45;;;;;;;;;;;;;;;;;;4219975;28;907;-60
2022/03/31 00:36:05;;;;;;;;;;;;;;;;;;4220627;28;954;-60
2022/03/31 00:38:26;;;;;;;;;;;;;;;;;;4220581;28;981;-60
2022/03/31 00:40:47;;;;;;;;;;;;;;;;;;4220628;28;1150;-60
2022/03/31 00:43:08;;;;;;;;;;;;;;;;;;4220564;28;974;-60
2022/03/31 00:45:28;;;;;;;;;;;;;;;;;;4220524;28;1179;-60
2022/03/31 00:47:49;;;;;;;;;;;;;;;;;;4220473;28;1910;-60
2022/03/31 00:50:11;;;;;;;;;;;;;;;;;;4220895;28;998;-60
2022/03/31 00:52:32;;;;;;;;;;;;;;;;;;4219449;28;1112;-60
2022/03/31 00:54:53;;;;;;;;;;;;;;;;;;4218998;28;1199;-60
2022/03/31 00:57:14;;;;;;;;;;;;;;;;;;4220103;28;1162;-59
2022/03/31 00:59:35;;;;;;;;;;;;;;;;;;4219840;28;1271;-59
2022/03/31 01:01:56;;;;;;;;;;;;;;;;;;4219247;28;2096;-59
2022/03/31 01:04:16;;;;;;;;;;;;;;;;;;4204753;28;1511;-60
2022/03/31 01:06:37;;;;;;;;;;;;;;;;;;4218473;28;1975;-59
2022/03/31 01:08:59;;;;;;;;;;;;;;;;;;4219920;28;989;-60
2022/03/31 01:11:20;;;;;;;;;;;;;;;;;;4219933;28;1129;-59
2022/03/31 01:13:40;;;;;;;;;;;;;;;;;;4179947;28;1129522;-60
2022/03/31 01:16:01;;;;;;;;;;;;;;;;;;4221149;28;930;-60
2022/03/31 01:18:22;;;;;;;;;;;;;;;;;;4221133;28;1083;-60
2022/03/31 01:20:43;;;;;;;;;;;;;;;;;;4221107;28;809;-59
2022/03/31 01:23:04;;;;;;;;;;;;;;;;;;4220900;28;984;-59
2022/03/31 01:25:26;;;;;;;;;;;;;;;;;;4237586;28;1290;-60
2022/03/31 01:27:46;;;;;;;;;;;;;;;;;;4234620;28;1882;-61
2022/03/31 01:30:07;;;;;;;;;;;;;;;;;;4235673;28;1045;-59
2022/03/31 01:32:28;;;;;;;;;;;;;;;;;;4236848;28;837;-59
2022/03/31 01:34:48;;;;;;;;;;;;;;;;;;4235981;27;1089;-58
2022/03/31 01:37:09;;;;;;;;;;;;;;;;;;4222967;27;3515;-59
2022/03/31 01:39:30;;;;;;;;;;;;;;;;;;4204200;28;1156;-59
2022/03/31 01:41:51;;;;;;;;;;;;;;;;;;4203149;28;1088;-59
2022/03/31 01:44:12;;;;;;;;;;;;;;;;;;4204716;28;1537;-58
2022/03/31 01:46:32;;;;;;;;;;;;;;;;;;4220063;28;1743;-59
2022/03/31 01:48:53;;;;;;;;;;;;;;;;;;4217772;28;2210;-59
2022/03/31 01:51:14;;;;;;;;;;;;;;;;;;4216320;28;3499;-59
2022/03/31 01:53:35;;;;;;;;;;;;;;;;;;4218728;28;1530;-59
2022/03/31 01:55:55;;;;;;;;;;;;;;;;;;4218743;28;833;-59
2022/03/31 01:58:16;;;;;;;;;;;;;;;;;;4217901;28;1195;-59
2022/03/31 02:00:37;;;;;;;;;;;;;;;;;;4218602;28;842;-60
2022/03/31 02:02:59;;;;;;;;;;;;;;;;;;4218385;28;1133;-59
2022/03/31 02:05:20;;;;;;;;;;;;;;;;;;4218247;28;820;-59
2022/03/31 02:07:41;;;;;;;;;;;;;;;;;;4218811;28;1914;-60
2022/03/31 02:10:01;;;;;;;;;;;;;;;;;;4220670;28;985;-59
2022/03/31 02:12:22;;;;;;;;;;;;;;;;;;4220599;28;1067;-59
2022/03/31 02:14:43;;;;;;;;;;;;;;;;;;4220743;28;1064;-59
2022/03/31 02:17:04;;;;;;;;;;;;;;;;;;4219686;28;1069;-60
2022/03/31 02:19:25;;;;;;;;;;;;;;;;;;4225864;28;997;-60
2022/03/31 02:21:46;;;;;;;;;;;;;;;;;;4237152;27;981;-59
2022/03/31 02:24:08;;;;;;;;;;;;;;;;;;4237388;27;915;-59
2022/03/31 02:26:30;;;;;;;;;;;;;;;;;;4235774;28;1264;-59
2022/03/31 02:28:50;;;;;;;;;;;;;;;;;;4237413;28;1996;-59
2022/03/31 02:31:11;;;;;;;;;;;;;;;;;;4236720;27;988;-59
2022/03/31 02:33:32;;;;;;;;;;;;;;;;;;4237459;27;989;-59
2022/03/31 02:35:53;;;;;;;;;;;;;;;;;;4236593;28;811;-59
2022/03/31 02:38:14;;;;;;;;;;;;;;;;;;4236565;27;984;-59
2022/03/31 02:40:35;;;;;;;;;;;;;;;;;;4236129;27;1023;-59
2022/03/31 02:42:56;;;;;;;;;;;;;;;;;;4236157;27;1190;-59
2022/03/31 02:45:17;;;;;;;;;;;;;;;;;;4236617;27;1167;-59
2022/03/31 02:47:38;;;;;;;;;;;;;;;;;;4236354;27;1979;-59
2022/03/31 02:49:59;;;;;;;;;;;;;;;;;;4236691;27;951;-59
2022/03/31 02:52:19;;;;;;;;;;;;;;;;;;4237047;28;927;-59
2022/03/31 02:57:18;;;;;;;;;;;;;;;;;;4237157;28;873;-59
2022/03/31 02:59:39;;;;;;;;;;;;;;;;;;4237160;28;757;-59
2022/03/31 03:02:00;;;;;;;;;;;;;;;;;;4236936;27;1240;-59
2022/03/31 03:04:20;;;;;;;;;;;;;;;;;;4236675;27;975;-59
2022/03/31 03:06:41;;;;;;;;;;;;;;;;;;4236627;27;1095;-59
2022/03/31 03:09:02;;;;;;;;;;;;;;;;;;4236503;27;1907;-59
2022/03/31 03:11:23;;;;;;;;;;;;;;;;;;4236885;27;959;-59
2022/03/31 03:13:44;;;;;;;;;;;;;;;;;;4236415;27;989;-60
2022/03/31 03:16:08;;;;;;;;;;;;;;;;;;4236821;27;1182;-59
2022/03/31 03:18:28;;;;;;;;;;;;;;;;;;4236881;28;1338;-59
2022/03/31 03:20:49;;;;;;;;;;;;;;;;;;4236298;27;1201;-58
2022/03/31 03:23:10;;;;;;;;;;;;;;;;;;4236881;27;1107;-57
2022/03/31 03:25:30;;;;;;;;;;;;;;;;;;4236673;27;993;-57
2022/03/31 03:27:51;;;;;;;;;;;;;;;;;;4236704;27;1980;-57
2022/03/31 03:30:12;;;;;;;;;;;;;;;;;;4236826;28;887;-57
2022/03/31 03:32:32;;;;;;;;;;;;;;;;;;4236957;28;920;-57
2022/03/31 03:34:53;;;;;;;;;;;;;;;;;;4236545;28;915;-58
2022/03/31 03:37:14;;;;;;;;;;;;;;;;;;4236603;27;1113;-57
2022/03/31 03:39:35;;;;;;;;;;;;;;;;;;4236675;27;948;-57
2022/03/31 03:41:56;;;;;;;;;;;;;;;;;;4236467;27;1411;-57
2022/03/31 03:44:17;;;;;;;;;;;;;;;;;;4236440;27;1217;-58
2022/03/31 03:46:37;;;;;;;;;;;;;;;;;;4236572;27;964;-57
2022/03/31 03:48:58;;;;;;;;;;;;;;;;;;4236407;27;1905;-57
2022/03/31 03:51:19;;;;;;;;;;;;;;;;;;4236914;28;982;-57
2022/03/31 03:53:48;;;;;;;;;;;;;;;;;;4236432;27;954;-57
2022/03/31 03:56:09;;;;;;;;;;;;;;;;;;4236584;28;992;-57
2022/03/31 03:58:30;;;;;;;;;;;;;;;;;;4236194;27;987;-57
2022/03/31 04:00:50;;;;;;;;;;;;;;;;;;4236599;28;1107;-57
2022/03/31 04:03:11;;;;;;;;;;;;;;;;;;4235965;27;917;-58
2022/03/31 04:05:32;;;;;;;;;;;;;;;;;;4237038;27;1016;-57
2022/03/31 04:07:53;;;;;;;;;;;;;;;;;;4238637;27;1882;-57
2022/03/31 04:10:13;;;;;;;;;;;;;;;;;;4237957;27;1203;-58
2022/03/31 04:12:34;;;;;;;;;;;;;;;;;;4238976;28;1062;-58
2022/03/31 04:14:55;;;;;;;;;;;;;;;;;;4238844;27;1300;-58
2022/03/31 04:17:15;;;;;;;;;;;;;;;;;;4239378;28;881;-58
2022/03/31 04:19:37;;;;;;;;;;;;;;;;;;4239050;27;1265;-58
2022/03/31 04:21:57;;;;;;;;;;;;;;;;;;4238688;27;933;-59
2022/03/31 04:24:17;;;;;;;;;;;;;;;;;;4239090;27;1289;-58
2022/03/31 04:26:38;;;;;;;;;;;;;;;;;;4238526;27;972;-58
2022/03/31 04:29:01;;;;;;;;;;;;;;;;;;4239385;28;1906;-58
2022/03/31 04:31:21;;;;;;;;;;;;;;;;;;4238637;27;980;-58
2022/03/31 04:33:42;;;;;;;;;;;;;;;;;;4237638;28;1206;-59
2022/03/31 04:36:03;;;;;;;;;;;;;;;;;;4238406;27;1172;-58
2022/03/31 04:38:23;;;;;;;;;;;;;;;;;;4238721;27;1098;-58
2022/03/31 04:40:44;;;;;;;;;;;;;;;;;;4238660;27;992;-58
2022/03/31 04:43:05;;;;;;;;;;;;;;;;;;4238872;28;909;-58
2022/03/31 04:45:26;;;;;;;;;;;;;;;;;;4238618;27;1292;-58
2022/03/31 04:47:46;;;;;;;;;;;;;;;;;;4239010;28;813;-58
2022/03/31 04:50:07;;;;;;;;;;;;;;;;;;4238770;28;809;-58
2022/03/31 04:52:27;;;;;;;;;;;;;;;;;;4238736;27;989;-57
2022/03/31 04:54:48;;;;;;;;;;;;;;;;;;4238610;27;989;-57
2022/03/31 04:57:09;;;;;;;;;;;;;;;;;;4237455;27;964;-57
2022/03/31 04:59:30;;;;;;;;;;;;;;;;;;4238553;27;1180;-57
2022/03/31 05:01:51;;;;;;;;;;;;;;;;;;4223356;28;1475;-58
2022/03/31 05:04:12;;;;;;;;;;;;;;;;;;4220886;28;1505;-57
2022/03/31 05:06:33;;;;;;;;;;;;;;;;;;4217869;28;1740;-57
2022/03/31 05:08:53;;;;;;;;;;;;;;;;;;4221220;28;1910;-58
2022/03/31 05:11:14;;;;;;;;;;;;;;;;;;4221680;28;1431;-58
2022/03/31 05:13:35;;;;;;;;;;;;;;;;;;4221102;28;1063;-58
2022/03/31 05:15:55;;;;;;;;;;;;;;;;;;4221250;28;1252;-57
2022/03/31 05:18:16;;;;;;;;;;;;;;;;;;4220530;28;976;-58
2022/03/31 05:20:37;;;;;;;;;;;;;;;;;;4220919;28;1591;-58
2022/03/31 05:22:58;;;;;;;;;;;;;;;;;;4220919;28;976;-58
2022/03/31 05:25:19;;;;;;;;;;;;;;;;;;4221351;28;1408;-57
2022/03/31 05:27:39;;;;;;;;;;;;;;;;;;4221070;28;812;-58
2022/03/31 05:30:00;;;;;;;;;;;;;;;;;;4220768;28;1905;-57
2022/03/31 05:32:21;;;;;;;;;;;;;;;;;;4203768;28;969;-58
2022/03/31 05:34:42;;;;;;;;;;;;;;;;;;4204107;28;748;-58
2022/03/31 05:37:05;;;;;;;;;;;;;;;;;;4203852;28;774;-58
2022/03/31 05:39:25;;;;;;;;;;;;;;;;;;4204107;28;980;-58
2022/03/31 05:41:46;;;;;;;;;;;;;;;;;;4203950;28;961;-58
2022/03/31 05:44:07;;;;;;;;;;;;;;;;;;4204306;28;1280;-58
2022/03/31 05:46:28;;;;;;;;;;;;;;;;;;4202925;28;1181;-57
2022/03/31 05:48:49;;;;;;;;;;;;;;;;;;4204181;28;1913;-58
2022/03/31 05:51:12;;;;;;;;;;;;;;;;;;4213543;28;1578;-58
2022/03/31 05:53:33;;;;;;;;;;;;;;;;;;4220886;28;1980;-58
2022/03/31 05:55:54;;;;;;;;;;;;;;;;;;4220759;28;950;-58
2022/03/31 05:58:15;;;;;;;;;;;;;;;;;;4228126;28;1519;-58
2022/03/31 06:00:36;;;;;;;;;;;;;;;;;;4220490;28;1351;-58
2022/03/31 06:02:56;;;;;;;;;;;;;;;;;;4220575;28;1724;-58
2022/03/31 06:05:20;;;;;;;;;;;;;;;;;;4220898;28;1017;-58
2022/03/31 06:07:40;;;;;;;;;;;;;;;;;;4221041;28;762;-58
2022/03/31 06:10:01;;;;;;;;;;;;;;;;;;4220658;28;1913;-58
2022/03/31 06:12:22;;;;;;;;;;;;;;;;;;4220559;28;1317;-58
2022/03/31 06:14:43;;;;;;;;;;;;;;;;;;4220917;28;1594;-58
2022/03/31 06:17:04;;;;;;;;;;;;;;;;;;4220552;28;1005;-58
2022/03/31 06:19:25;;;;;;;;;;;;;;;;;;4220847;28;1196;-58
2022/03/31 06:21:46;;;;;;;;;;;;;;;;;;4220485;28;994;-58
2022/03/31 06:24:06;;;;;;;;;;;;;;;;;;4220223;28;1128;-58
2022/03/31 06:26:28;;;;;;;;;;;;;;;;;;4220137;28;1211;-58
2022/03/31 06:28:49;;;;;;;;;;;;;;;;;;4219800;28;1913;-58
2022/03/31 06:31:09;;;;;;;;;;;;;;;;;;4220129;28;1020;-58
2022/03/31 06:33:30;;;;;;;;;;;;;;;;;;4219939;28;1607;-58
2022/03/31 06:35:50;;;;;;;;;;;;;;;;;;4206605;28;2287;-59
2022/03/31 06:38:11;;;;;;;;;;;;;;;;;;4217484;28;968;-58
2022/03/31 06:40:36;;;;;;;;;;;;;;;;;;4218764;28;1238;-58
2022/03/31 06:42:57;;;;;;;;;;;;;;;;;;4218821;28;1311;-58
2022/03/31 06:45:18;;;;;;;;;;;;;;;;;;4218703;28;1357;-58
2022/03/31 06:47:40;;;;;;;;;;;;;;;;;;4218506;28;977;-58
2022/03/31 06:50:02;;;;;;;;;;;;;;;;;;4218326;28;1930;-58
2022/03/31 06:52:23;;;;;;;;;;;;;;;;;;4213100;28;1201;-58
2022/03/31 06:54:43;;;;;;;;;;;;;;;;;;4218022;28;878;-58
2022/03/31 06:57:04;;;;;;;;;;;;;;;;;;4218061;28;1173;-58
2022/03/31 06:59:25;;;;;;;;;;;;;;;;;;4218029;28;982;-58
2022/03/31 07:01:45;;;;;;;;;;;;;;;;;;4218047;28;878;-58
2022/03/31 07:04:07;;;;;;;;;;;;;;;;;;4216860;28;1819;-58
2022/03/31 07:06:29;;;;;;;;;;;;;;;;;;4208656;28;1543;-58
2022/03/31 07:08:49;;;;;;;;;;;;;;;;;;4201383;28;1905;-58
2022/03/31 07:11:10;;;;;;;;;;;;;;;;;;4212646;28;1409;-58
2022/03/31 07:13:31;;;;;;;;;;;;;;;;;;4217783;28;1084;-58
2022/03/31 07:15:52;;;;;;;;;;;;;;;;;;4218107;28;938;-58
2022/03/31 07:18:13;;;;;;;;;;;;;;;;;;4218155;28;1007;-58
2022/03/31 07:20:33;;;;;;;;;;;;;;;;;;4218101;28;965;-58
2022/03/31 07:22:54;;;;;;;;;;;;;;;;;;4215240;28;1423;-58
2022/03/31 07:25:17;;;;;;;;;;;;;;;;;;4214858;28;1454;-58
2022/03/31 07:27:37;;;;;;;;;;;;;;;;;;4215271;28;1784;-58
2022/03/31 07:29:58;;;;;;;;;;;;;;;;;;4218049;28;1910;-58
2022/03/31 07:32:18;;;;;;;;;;;;;;;;;;4218194;28;884;-58
2022/03/31 07:34:41;;;;;;;;;;;;;;;;;;4218152;28;954;-58
2022/03/31 07:37:03;;;;;;;;;;;;;;;;;;4217024;28;1243;-58
2022/03/31 07:39:23;;;;;;;;;;;;;;;;;;4215877;28;1703;-58
2022/03/31 07:41:44;;;;;;;;;;;;;;;;;;4220140;28;988;-58
2022/03/31 07:44:05;;;;;;;;;;;;;;;;;;4220459;28;992;-58
2022/03/31 07:46:29;;;;;;;;;;;;;;;;;;4220856;28;1137;-58
2022/03/31 07:48:50;;;;;;;;;;;;;;;;;;4220852;28;983;-60
2022/03/31 07:51:11;;;;;;;;;;;;;;;;;;4220078;28;1151;-58
2022/03/31 07:53:33;;;;;;;;;;;;;;;;;;4220145;28;920;-58
2022/03/31 07:55:54;;;;;;;;;;;;;;;;;;4220309;28;1423;-58
2022/03/31 07:58:15;;;;;;;;;;;;;;;;;;4220821;28;1030;-57
2022/03/31 08:00:36;;;;;;;;;;;;;;;;;;4203915;28;1064;-58
2022/03/31 08:02:58;;;;;;;;;;;;;;;;;;4203629;28;1211;-58
2022/03/31 08:05:19;;;;;;;;;;;;;;;;;;4203623;28;1165;-58
2022/03/31 08:07:40;;;;;;;;;;;;;;;;;;4220055;28;1132;-58
2022/03/31 08:10:00;;;;;;;;;;;;;;;;;;4219886;28;1910;-58
2022/03/31 08:12:22;;;;;;;;;;;;;;;;;;4220230;28;1172;-58
2022/03/31 08:14:42;;;;;;;;;;;;;;;;;;4220088;28;1017;-58
2022/03/31 08:17:03;;;;;;;;;;;;;;;;;;4220284;28;874;-58
2022/03/31 08:19:24;;;;;;;;;;;;;;;;;;4219671;28;1049;-58
2022/03/31 08:21:45;;;;;;;;;;;;;;;;;;4219273;28;1270;-58
2022/03/31 08:24:06;;;;;;;;;;;;;;;;;;4218597;28;1215;-58
2022/03/31 08:26:27;;;;;;;;;;;;;;;;;;4221392;28;1027;-57
2022/03/31 08:28:48;;;;;;;;;;;;;;;;;;4221565;28;1058;-58
2022/03/31 08:31:09;;;;;;;;;;;;;;;;;;4221500;28;1905;-58
2022/03/31 08:33:30;;;;;;;;;;;;;;;;;;4221936;28;1029;-58
2022/03/31 08:35:50;;;;;;;;;;;;;;;;;;4221636;28;1326;-57
2022/03/31 08:38:11;;;;;;;;;;;;;;;;;;4220037;28;1641;-58
2022/03/31 08:40:32;;;;;;;;;;;;;;;;;;4204798;28;989;-58
2022/03/31 08:42:52;;;;;;;;;;;;;;;;;;4215397;28;1179;-57
2022/03/31 08:45:13;;;;;;;;;;;;;;;;;;4221719;28;1096;-58
2022/03/31 08:47:34;;;;;;;;;;;;;;;;;;4220938;28;988;-58
2022/03/31 08:49:54;;;;;;;;;;;;;;;;;;4221588;28;1914;-58
2022/03/31 08:52:15;;;;;;;;;;;;;;;;;;4220977;28;1108;-57
2022/03/31 08:54:36;;;;;;;;;;;;;;;;;;4221415;28;996;-58
2022/03/31 08:56:57;;;;;;;;;;;;;;;;;;4219803;28;1773;-58
2022/03/31 08:59:17;;;;;;;;;;;;;;;;;;4221480;28;2028;-58
2022/03/31 09:01:39;;;;;;;;;;;;;;;;;;4219943;28;1483;-58
2022/03/31 09:04:00;;;;;;;;;;;;;;;;;;4219951;28;1455;-58
2022/03/31 09:06:20;;;;;;;;;;;;;;;;;;4219672;28;1518;-58
2022/03/31 09:08:41;;;;;;;;;;;;;;;;;;4221221;28;1859;-58
2022/03/31 09:11:03;;;;;;;;;;;;;;;;;;4221002;28;1913;-58
2022/03/31 09:13:24;;;;;;;;;;;;;;;;;;4220677;28;1685;-58
2022/03/31 09:15:44;;;;;;;;;;;;;;;;;;4221208;28;1020;-58
2022/03/31 09:18:05;;;;;;;;;;;;;;;;;;4221429;28;946;-58
2022/03/31 09:20:26;;;;;;;;;;;;;;;;;;4221528;28;965;-58
2022/03/31 09:22:48;;;;;;;;;;;;;;;;;;4221388;28;1535;-58
2022/03/31 09:25:10;;;;;;;;;;;;;;;;;;4221061;28;1002;-58
2022/03/31 09:27:31;;;;;;;;;;;;;;;;;;4221179;28;1363;-58
2022/03/31 09:29:52;;;;;;;;;;;;;;;;;;4221313;28;1909;-58
2022/03/31 09:32:13;;;;;;;;;;;;;;;;;;4220978;28;956;-59
2022/03/31 09:34:34;;;;;;;;;;;;;;;;;;4220994;28;1188;-58
2022/03/31 09:36:55;;;;;;;;;;;;;;;;;;4221094;28;1179;-58
2022/03/31 09:39:17;;;;;;;;;;;;;;;;;;4220988;28;962;-58
2022/03/31 09:41:37;;;;;;;;;;;;;;;;;;4220883;28;951;-57
2022/03/31 09:43:58;;;;;;;;;;;;;;;;;;4220587;28;1251;-58
2022/03/31 09:46:19;;;;;;;;;;;;;;;;;;4220509;28;982;-58
2022/03/31 09:48:41;;;;;;;;;;;;;;;;;;4220854;28;779;-58
2022/03/31 09:51:02;;;;;;;;;;;;;;;;;;4220391;28;1909;-58
2022/03/31 09:53:22;;;;;;;;;;;;;;;;;;4220469;28;1091;-58
2022/03/31 09:55:43;;;;;;;;;;;;;;;;;;4220745;28;1372;-58
2022/03/31 09:58:04;;;;;;;;;;;;;;;;;;4220963;28;1012;-58
2022/03/31 10:00:25;;;;;;;;;;;;;;;;;;4220776;28;1807;-58
2022/03/31 10:02:46;;;;;;;;;;;;;;;;;;4220258;28;1239;-58
2022/03/31 10:05:07;;;;;;;;;;;;;;;;;;4220800;28;1053;-58
2022/03/31 10:07:28;;;;;;;;;;;;;;;;;;4221127;28;1654;-58
2022/03/31 10:09:49;;;;;;;;;;;;;;;;;;4220088;28;954;-58
2022/03/31 10:12:10;;;;;;;;;;;;;;;;;;4220759;28;1067;-58
2022/03/31 10:14:31;;;;;;;;;;;;;;;;;;4218621;28;1928;-58
2022/03/31 10:16:51;;;;;;;;;;;;;;;;;;4220325;28;1047;-58
2022/03/31 10:19:12;;;;;;;;;;;;;;;;;;4220423;28;1192;-58
2022/03/31 10:21:33;;;;;;;;;;;;;;;;;;4220070;28;1062;-58
2022/03/31 10:26:33;;;;;;;;;;;;;;;;;;4203872;28;1119;-58
2022/03/31 10:28:53;;;;;;;;;;;;;;;;;;4209153;28;2005;-58
2022/03/31 10:31:16;;;;;;;;;;;;;;;;;;4219951;28;1901;-58
2022/03/31 10:33:37;;;;;;;;;;;;;;;;;;4220259;28;1296;-58
2022/03/31 10:35:58;;;;;;;;;;;;;;;;;;4220297;28;1317;-58
2022/03/31 10:38:18;;;;;;;;;;;;;;;;;;4220398;28;924;-58
2022/03/31 10:40:40;;;;;;;;;;;;;;;;;;4220296;28;998;-58
2022/03/31 10:43:00;;;;;;;;;;;;;;;;;;4220595;28;815;-59
2022/03/31 10:45:21;;;;;;;;;;;;;;;;;;4219902;28;1136;-57
2022/03/31 10:47:42;;;;;;;;;;;;;;;;;;4203524;28;962;-57
2022/03/31 10:50:02;;;;;;;;;;;;;;;;;;4214875;28;1537;-57
2022/03/31 10:52:23;;;;;;;;;;;;;;;;;;4219853;28;1006;-57
2022/03/31 10:54:44;;;;;;;;;;;;;;;;;;4220010;28;1128;-57
2022/03/31 10:57:05;;;;;;;;;;;;;;;;;;4218823;28;784;-57
2022/03/31 10:59:26;;;;;;;;;;;;;;;;;;4218213;28;1847;-57
2022/03/31 11:01:49;;;;;;;;;;;;;;;;;;4218199;28;1604;-56
2022/03/31 11:04:09;;;;;;;;;;;;;;;;;;4218242;28;1432;-56
2022/03/31 11:06:31;;;;;;;;;;;;;;;;;;4217893;28;960;-57
2022/03/31 11:08:51;;;;;;;;;;;;;;;;;;4218013;28;988;-57
2022/03/31 11:11:12;;;;;;;;;;;;;;;;;;4201428;28;1910;-57
2022/03/31 11:13:33;;;;;;;;;;;;;;;;;;4200853;28;1246;-57
2022/03/31 11:15:54;;;;;;;;;;;;;;;;;;4210192;28;1868;-56
2022/03/31 11:18:14;;;;;;;;;;;;;;;;;;4221440;28;794;-56
2022/03/31 11:20:36;;;;;;;;;;;;;;;;;;4221369;28;935;-57
2022/03/31 11:22:59;;;;;;;;;;;;;;;;;;4205962;28;1146;-57
2022/03/31 11:25:20;;;;;;;;;;;;;;;;;;4220856;28;1032;-56
2022/03/31 11:27:40;;;;;;;;;;;;;;;;;;4218918;28;888;-57
2022/03/31 11:30:01;;;;;;;;;;;;;;;;;;4218462;28;1286;-57
2022/03/31 11:32:22;;;;;;;;;;;;;;;;;;4219877;28;1971;-58
2022/03/31 11:34:43;;;;;;;;;;;;;;;;;;4219927;28;1070;-56
2022/03/31 11:37:04;;;;;;;;;;;;;;;;;;4219724;28;1231;-58
2022/03/31 11:39:28;;;;;;;;;;;;;;;;;;4219607;28;1262;-58
2022/03/31 11:41:49;;;;;;;;;;;;;;;;;;4219524;28;944;-58
2022/03/31 11:44:10;;;;;;;;;;;;;;;;;;4218819;28;968;-58
2022/03/31 11:46:31;;;;;;;;;;;;;;;;;;4219065;28;1608;-57
2022/03/31 11:48:52;;;;;;;;;;;;;;;;;;4219002;28;2033;-59
2022/03/31 11:51:15;;;;;;;;;;;;;;;;;;4218170;28;2423;-58
2022/03/31 11:53:38;;;;;;;;;;;;;;;;;;4219204;28;1169;-58
2022/03/31 11:56:08;;;;;;;;;;;;;;;;;;4220476;28;1080;-57
2022/03/31 11:58:30;;;;;;;;;;;;;;;;;;4220481;28;1087;-57
2022/03/31 12:00:50;;;;;;;;;;;;;;;;;;4203821;28;1177;-58
2022/03/31 12:03:11;;;;;;;;;;;;;;;;;;4204293;28;868;-58
2022/03/31 12:05:32;;;;;;;;;;;;;;;;;;4203937;28;1229;-57
2022/03/31 12:07:52;;;;;;;;;;;;;;;;;;4204353;28;942;-58
2022/03/31 12:10:13;;;;;;;;;;;;;;;;;;4204368;28;788;-57
2022/03/31 12:12:34;;;;;;;;;;;;;;;;;;4204213;28;1913;-57
2022/03/31 12:14:54;;;;;;;;;;;;;;;;;;4203966;28;950;-58
2022/03/31 12:17:15;;;;;;;;;;;;;;;;;;4205486;28;1606;-57
2022/03/31 12:19:35;;;;;;;;;;;;;;;;;;4220111;28;1221;-58
2022/03/31 12:21:58;;;;;;;;;;;;;;;;;;4215474;28;2304;-58
2022/03/31 12:24:19;;;;;;;;;;;;;;;;;;4205612;28;2187;-57
2022/03/31 12:26:40;;;;;;;;;;;;;;;;;;4213455;28;1369;-57
2022/03/31 12:29:01;;;;;;;;;;;;;;;;;;4218803;28;1303;-57
2022/03/31 12:31:22;;;;;;;;;;;;;;;;;;4219618;28;1989;-58
2022/03/31 12:33:43;;;;;;;;;;;;;;;;;;4221136;28;1987;-58
2022/03/31 12:36:04;;;;;;;;;;;;;;;;;;4221247;28;1156;-57
2022/03/31 12:38:25;;;;;;;;;;;;;;;;;;4218196;28;915;-57
2022/03/31 12:40:46;;;;;;;;;;;;;;;;;;4218542;28;1255;-57
2022/03/31 12:43:07;;;;;;;;;;;;;;;;;;4218691;28;990;-58
2022/03/31 12:45:29;;;;;;;;;;;;;;;;;;4217253;28;1428;-60
2022/03/31 12:47:50;;;;;;;;;;;;;;;;;;4219367;28;1040;-57
2022/03/31 12:50:17;;;;;;;;;;;;;;;;;;4218516;28;977;-58
2022/03/31 12:52:38;;;;;;;;;;;;;;;;;;4217756;28;1925;-57
2022/03/31 12:54:59;;;;;;;;;;;;;;;;;;4218162;28;1670;-57
2022/03/31 12:57:20;;;;;;;;;;;;;;;;;;4218943;28;1176;-57
2022/03/31 12:59:41;;;;;;;;;;;;;;;;;;4217353;28;1532;-57
2022/03/31 13:02:02;;;;;;;;;;;;;;;;;;4218364;28;1246;-57
2022/03/31 13:04:22;;;;;;;;;;;;;;;;;;4218617;28;1083;-57
2022/03/31 13:06:43;;;;;;;;;;;;;;;;;;4218008;28;1139;-57
2022/03/31 13:09:06;;;;;;;;;;;;;;;;;;4218578;28;1008;-57
2022/03/31 13:11:27;;;;;;;;;;;;;;;;;;4218234;28;1978;-57
2022/03/31 13:13:48;;;;;;;;;;;;;;;;;;4218331;28;1150;-57
2022/03/31 13:16:08;;;;;;;;;;;;;;;;;;4217705;28;989;-57
2022/03/31 13:18:29;;;;;;;;;;;;;;;;;;4218268;28;840;-56
2022/03/31 13:20:50;;;;;;;;;;;;;;;;;;4219368;28;1310;-57
2022/03/31 13:23:11;;;;;;;;;;;;;;;;;;4218642;28;1179;-57
2022/03/31 13:25:32;;;;;;;;;;;;;;;;;;4219713;28;953;-57
2022/03/31 13:27:53;;;;;;;;;;;;;;;;;;4219931;28;865;-57
2022/03/31 13:30:14;;;;;;;;;;;;;;;;;;4219370;28;1146;-58
2022/03/31 13:32:34;;;;;;;;;;;;;;;;;;4219541;28;1985;-57
2022/03/31 13:34:56;;;;;;;;;;;;;;;;;;4218016;28;856;-57
2022/03/31 13:37:17;;;;;;;;;;;;;;;;;;4218641;28;1136;-57
2022/03/31 13:39:37;;;;;;;;;;;;;;;;;;4218636;28;994;-58
2022/03/31 13:41:58;;;;;;;;;;;;;;;;;;4219083;28;1158;-57
2022/03/31 13:44:19;;;;;;;;;;;;;;;;;;4219355;28;816;-57
2022/03/31 13:46:41;;;;;;;;;;;;;;;;;;4219417;28;926;-57
2022/03/31 13:49:02;;;;;;;;;;;;;;;;;;4219741;28;1378;-57
2022/03/31 13:51:23;;;;;;;;;;;;;;;;;;4218874;28;1922;-57
2022/03/31 13:53:48;;;;;;;;;;;;;;;;;;4218838;28;977;-57
2022/03/31 13:56:09;;;;;;;;;;;;;;;;;;4218890;28;926;-57
2022/03/31 14:01:18;;;;;;;;;;;;;;;;;;4202287;28;785;-57
2022/03/31 14:03:38;;;;;;;;;;;;;;;;;;4202399;28;878;-57
2022/03/31 14:05:59;;;;;;;;;;;;;;;;;;4203072;28;1177;-57
2022/03/31 14:08:19;;;;;;;;;;;;;;;;;;4218572;28;957;-57
2022/03/31 14:10:40;;;;;;;;;;;;;;;;;;4218994;28;1265;-57
2022/03/31 14:13:01;;;;;;;;;;;;;;;;;;4219650;28;1909;-57
2022/03/31 14:15:22;;;;;;;;;;;;;;;;;;4218820;28;1359;-57
2022/03/31 14:17:43;;;;;;;;;;;;;;;;;;4220657;28;1262;-57
2022/03/31 14:20:04;;;;;;;;;;;;;;;;;;4216337;28;1201;-57
2022/03/31 14:22:24;;;;;;;;;;;;;;;;;;4220262;28;1121;-57
2022/03/31 14:24:45;;;;;;;;;;;;;;;;;;4220400;28;1091;-57
2022/03/31 14:27:06;;;;;;;;;;;;;;;;;;4220151;28;979;-57
2022/03/31 14:29:27;;;;;;;;;;;;;;;;;;4220012;28;1169;-57
2022/03/31 14:31:48;;;;;;;;;;;;;;;;;;4220343;28;1990;-57
2022/03/31 14:34:09;;;;;;;;;;;;;;;;;;4219960;28;1203;-57
2022/03/31 14:36:29;;;;;;;;;;;;;;;;;;4219890;28;1096;-57
2022/03/31 14:38:50;;;;;;;;;;;;;;;;;;4220500;28;952;-57
2022/03/31 14:41:13;;;;;;;;;;;;;;;;;;4220206;28;962;-57
2022/03/31 14:43:33;;;;;;;;;;;;;;;;;;4219803;28;979;-57
2022/03/31 14:45:54;;;;;;;;;;;;;;;;;;4219878;28;1125;-57
2022/03/31 14:48:15;;;;;;;;;;;;;;;;;;4219515;28;1752;-57
2022/03/31 14:50:35;;;;;;;;;;;;;;;;;;4219570;28;1447;-57
2022/03/31 14:52:56;;;;;;;;;;;;;;;;;;4203460;28;1992;-57
2022/03/31 14:55:17;;;;;;;;;;;;;;;;;;4218837;28;1354;-57
2022/03/31 14:57:37;;;;;;;;;;;;;;;;;;4219999;28;1316;-57
2022/03/31 14:59:58;;;;;;;;;;;;;;;;;;4219999;28;1572;-57
2022/03/31 15:02:19;;;;;;;;;;;;;;;;;;4219916;28;917;-57
2022/03/31 15:04:39;;;;;;;;;;;;;;;;;;4218272;28;1186;-57
2022/03/31 15:07:01;;;;;;;;;;;;;;;;;;4219364;28;1312;-57
2022/03/31 15:14:39;;;;;;;;;;;;;;;;;;4202803;28;1142;-57
2022/03/31 15:17:00;;;;;;;;;;;;;;;;;;4202732;28;989;-59
2022/03/31 15:19:20;;;;;;;;;;;;;;;;;;4202582;28;805;-57
2022/03/31 15:21:41;;;;;;;;;;;;;;;;;;4214215;28;1386;-57
2022/03/31 15:24:02;;;;;;;;;;;;;;;;;;4219066;28;974;-57
2022/03/31 15:26:23;;;;;;;;;;;;;;;;;;4219166;28;1016;-57
2022/03/31 15:28:44;;;;;;;;;;;;;;;;;;4218445;28;1074;-56
2022/03/31 15:31:04;;;;;;;;;;;;;;;;;;4218980;28;1087;-57
2022/03/31 15:33:26;;;;;;;;;;;;;;;;;;4219097;28;1905;-57
2022/03/31 15:35:51;;;;;;;;;;;;;;;;;;4219048;28;1159;-56
2022/03/31 15:38:11;;;;;;;;;;;;;;;;;;4219126;28;1324;-57
2022/03/31 15:40:32;;;;;;;;;;;;;;;;;;4217981;28;1737;-57
2022/03/31 15:42:53;;;;;;;;;;;;;;;;;;4218303;28;908;-57
2022/03/31 15:45:14;;;;;;;;;;;;;;;;;;4219056;28;1385;-57
2022/03/31 15:47:35;;;;;;;;;;;;;;;;;;4218906;28;1399;-57
2022/03/31 15:49:56;;;;;;;;;;;;;;;;;;4219312;28;1257;-57
2022/03/31 15:52:17;;;;;;;;;;;;;;;;;;4215138;28;1909;-56
2022/03/31 15:54:38;;;;;;;;;;;;;;;;;;4217485;28;1199;-57
2022/03/31 15:56:59;;;;;;;;;;;;;;;;;;4217674;28;1071;-57
2022/03/31 15:59:19;;;;;;;;;;;;;;;;;;4217004;28;1424;-58
2022/03/31 16:01:40;;;;;;;;;;;;;;;;;;4218816;28;1016;-58
2022/03/31 16:04:01;;;;;;;;;;;;;;;;;;4220407;28;1104;-60
2022/03/31 16:06:22;;;;;;;;;;;;;;;;;;4219418;28;1111;-58
2022/03/31 16:08:43;;;;;;;;;;;;;;;;;;4220768;28;1001;-57
2022/03/31 16:11:04;;;;;;;;;;;;;;;;;;4220515;28;1226;-58
2022/03/31 16:13:25;;;;;;;;;;;;;;;;;;4220113;28;1914;-57
2022/03/31 16:15:46;;;;;;;;;;;;;;;;;;4220405;28;989;-57
2022/03/31 16:18:07;;;;;;;;;;;;;;;;;;4221115;28;1225;-57
2022/03/31 16:20:28;;;;;;;;;;;;;;;;;;4220229;28;837;-57
2022/03/31 16:22:48;;;;;;;;;;;;;;;;;;4219484;28;1016;-56
2022/03/31 16:25:09;;;;;;;;;;;;;;;;;;4220430;28;989;-56
2022/03/31 16:27:30;;;;;;;;;;;;;;;;;;4220088;28;1164;-57
2022/03/31 16:29:51;;;;;;;;;;;;;;;;;;4219972;28;1232;-56
2022/03/31 16:32:12;;;;;;;;;;;;;;;;;;4219827;28;1275;-57
2022/03/31 16:34:33;;;;;;;;;;;;;;;;;;4220495;28;1253;-56
2022/03/31 16:36:53;;;;;;;;;;;;;;;;;;4219324;28;1110;-56
2022/03/31 16:39:16;;;;;;;;;;;;;;;;;;4220081;28;1025;-57